Weather reports worldwide

Advertisment
Belfast/Harbour, United Kingdom (3924): temperature & dewpoint: 08.12.2019 01:00:00 - 14.12.2019 01:00:00 (GMT)Belfast/Harbour, United Kingdom (3924): wind speed: 08.12.2019 01:00:00 - 14.12.2019 01:00:00 (GMT)Belfast/Harbour, United Kingdom (3924): wind direction: 08.12.2019 01:00:00 - 14.12.2019 01:00:00 (GMT)Belfast/Harbour, United Kingdom (3924): visibility: 08.12.2019 01:00:00 - 14.12.2019 01:00:00 (GMT)
Date & Time tt [°C] td [°C] ff [km/h] ff [kn] dd vv [km]
14.12.2019 01:00:00 3,0 1,0 28 15 SW 10
14.12.2019 00:00:00 3,0 1,0 24 13 WSW 10
13.12.2019 23:00:00 3,0 2,0 26 14 SW 10
13.12.2019 22:00:00 4,0 2,0 24 13 WSW 10
13.12.2019 21:00:00 4,0 2,0 18 10 WSW 10
13.12.2019 20:00:00 5,0 2,0 24 13 WSW 10
13.12.2019 19:00:00 5,0 3,0 22 12 WSW 10
13.12.2019 18:00:00 5,0 3,0 22 12 WSW 10
13.12.2019 17:00:00 6,0 3,0 18 10 WSW 10
13.12.2019 16:00:00 6,0 4,0 21 11 WSW 10
13.12.2019 15:00:00 7,0 5,0 21 11 WSW 10
13.12.2019 14:00:00 7,0 5,0 24 13 W 10
13.12.2019 13:00:00 8,0 6,0 16 9 W 10
13.12.2019 12:00:00 7,0 6,0 13 7 W 10
13.12.2019 11:00:00 7,0 6,0 13 7 W 10
13.12.2019 10:00:00 6,0 6,0 11 6 WSW 9
13.12.2019 09:00:00 6,0 5,0 16 9 WSW 10
13.12.2019 08:00:00 5,0 5,0 9 5 SSW 10
13.12.2019 07:00:00 5,0 4,0 13 7 W 7
13.12.2019 06:00:00 5,0 3,0 22 12 W 3,8
13.12.2019 05:00:00 5,0 4,0 15 8 S 10
13.12.2019 04:00:00 5,0 4,0 13 7 WSW 10
13.12.2019 03:00:00 5,0 4,0 16 9 WSW 10
13.12.2019 02:00:00 5,0 4,0 15 8 SSW 10
13.12.2019 01:00:00 5,0 4,0 18 10 SSW 10
13.12.2019 00:00:00 5,0 4,0 8 4 SSW 10
12.12.2019 23:00:00 6,0 4,0 11 6 W 10
12.12.2019 22:00:00 5,0 4,0 4 2 SE 5
12.12.2019 21:00:00 5,0 4,0 0 0 N 10
12.12.2019 20:00:00 5,0 4,0 5 3 NE 10
12.12.2019 19:00:00 5,0 4,0 8 4 WSW 10
12.12.2019 18:00:00 5,0 4,0 15 8 W 10
12.12.2019 17:00:00 5,0 5,0 9 5 W 10
12.12.2019 16:00:00 6,0 6,0 15 8 W 10
12.12.2019 15:00:00 7,0 6,0 8 4 SSW 4,9
12.12.2019 14:00:00 7,0 7,0 4 2 - 6
12.12.2019 13:00:00 7,0 7,0 2 1 - 6
12.12.2019 12:00:00 7,0 6,0 2 1 - 7
12.12.2019 11:00:00 6,0 6,0 4 2 SW 8
12.12.2019 10:00:00 6,0 6,0 9 5 S 10
12.12.2019 09:00:00 5,0 5,0 2 1 - 2,5
12.12.2019 08:00:00 4,0 4,0 5 3 NNW 4,6
12.12.2019 07:00:00 4,0 3,0 8 4 SSW 10
12.12.2019 06:00:00 3,0 2,0 8 4 S 10
12.12.2019 05:00:00 3,0 2,0 9 5 S 10
12.12.2019 04:00:00 2,0 2,0 11 6 S 10
12.12.2019 03:00:00 2,0 1,0 16 9 SSW 10
12.12.2019 02:00:00 2,0 1,0 16 9 SSW 10
12.12.2019 01:00:00 2,0 0,0 15 8 SSW 10
12.12.2019 00:00:00 2,0 0,0 24 13 SW 10
11.12.2019 23:00:00 2,0 0,0 24 13 SW 10
11.12.2019 22:00:00 2,0 1,0 28 15 SW 10
11.12.2019 21:00:00 2,0 1,0 29 16 SW 10
11.12.2019 20:00:00 3,0 1,0 22 12 SW 10
11.12.2019 19:00:00 3,0 1,0 21 11 SSW 10
11.12.2019 18:00:00 3,0 1,0 21 11 SSW 10
11.12.2019 17:00:00 3,0 2,0 15 8 S 10
11.12.2019 16:00:00 4,0 1,0 21 11 SW 10
11.12.2019 15:00:00 4,0 2,0 22 12 SW 10
11.12.2019 14:00:00 5,0 2,0 22 12 WSW 10
11.12.2019 13:00:00 5,0 2,0 22 12 SW 10
11.12.2019 12:00:00 5,0 2,0 24 13 SW 10
11.12.2019 11:00:00 4,0 2,0 26 14 SW 10
11.12.2019 10:00:00 3,0 2,0 24 13 SW 10
11.12.2019 09:00:00 4,0 2,0 31 17 SW 10
11.12.2019 08:00:00 4,0 2,0 26 14 SW 10
11.12.2019 07:00:00 4,0 2,0 26 14 SSW 10
11.12.2019 06:00:00 4,0 2,0 28 15 SW 10
11.12.2019 05:00:00 4,0 2,0 31 17 SSW 10
11.12.2019 04:00:00 4,0 2,0 26 14 SSW 10
11.12.2019 03:00:00 4,0 2,0 26 14 SSW 10
11.12.2019 02:00:00 4,0 2,0 28 15 SW 10
11.12.2019 01:00:00 4,0 2,0 26 14 SW 10
11.12.2019 00:00:00 5,0 2,0 29 16 SW 10
10.12.2019 23:00:00 5,0 2,0 26 14 SW 10
10.12.2019 22:00:00 5,0 2,0 35 19 WSW 10
10.12.2019 21:00:00 5,0 3,0 29 16 WSW 10
10.12.2019 20:00:00 5,0 3,0 28 15 SW 10
10.12.2019 19:00:00 5,0 3,0 28 15 WSW 10
10.12.2019 18:00:00 6,0 3,0 26 14 SW 10
10.12.2019 17:00:00 6,0 4,0 24 13 WSW 10
10.12.2019 16:00:00 6,0 4,0 24 13 W 10
10.12.2019 15:00:00 7,0 5,0 28 15 WSW 10
10.12.2019 14:00:00 9,0 6,0 26 14 W 5
10.12.2019 13:00:00 13,0 12,0 41 22 SSW 9
10.12.2019 12:00:00 14,0 12,0 48 26 SSW 10
10.12.2019 11:00:00 13,0 11,0 41 22 S 10
10.12.2019 10:00:00 12,0 11,0 31 17 S 10
10.12.2019 09:00:00 11,0 10,0 28 15 S 10
10.12.2019 08:00:00 10,0 9,0 29 16 SSW 7
10.12.2019 07:00:00 10,0 9,0 29 16 S 9
10.12.2019 06:00:00 10,0 8,0 41 22 S 10
10.12.2019 05:00:00 9,0 7,0 29 16 S 10
10.12.2019 04:00:00 8,0 6,0 22 12 S 8
10.12.2019 03:00:00 8,0 5,0 21 11 S 10
10.12.2019 02:00:00 8,0 5,0 28 15 S 10
10.12.2019 01:00:00 7,0 4,0 21 11 S 10
10.12.2019 00:00:00 7,0 4,0 18 10 S 10
09.12.2019 23:00:00 5,0 3,0 15 8 S 10
09.12.2019 22:00:00 5,0 4,0 9 5 S 10
09.12.2019 21:00:00 5,0 4,0 13 7 SSE 10
09.12.2019 20:00:00 5,0 4,0 15 8 S 10
09.12.2019 19:00:00 5,0 3,0 15 8 S 10
09.12.2019 18:00:00 5,0 3,0 11 6 S 10
09.12.2019 17:00:00 6,0 3,0 13 7 S 10
09.12.2019 16:00:00 7,0 3,0 15 8 SSW 10
09.12.2019 15:00:00 7,0 3,0 11 6 WSW 10
09.12.2019 14:00:00 8,0 2,0 13 7 WNW 10
09.12.2019 13:00:00 8,0 3,0 15 8 W 10
09.12.2019 12:00:00 8,0 3,0 8 4 W 10
09.12.2019 11:00:00 7,0 3,0 15 8 WNW 10
09.12.2019 10:00:00 6,0 2,0 13 7 NW 10
09.12.2019 09:00:00 7,0 2,0 15 8 NW 10
09.12.2019 08:00:00 6,0 1,0 22 12 NW 10
09.12.2019 07:00:00 6,0 2,0 18 10 NW 10
09.12.2019 06:00:00 7,0 3,0 18 10 NW 10
09.12.2019 05:00:00 7,0 3,0 28 15 NW 10
09.12.2019 04:00:00 7,0 4,0 26 14 NW 10
09.12.2019 03:00:00 7,0 5,0 26 14 NNW 4,9
09.12.2019 02:00:00 7,0 5,0 26 14 NW 4,6
09.12.2019 01:00:00 8,0 5,0 24 13 NW 10
09.12.2019 00:00:00 7,0 5,0 29 16 NW 10
08.12.2019 23:00:00 6,0 5,0 2 1 - 8
08.12.2019 22:00:00 6,0 5,0 22 12 SSW 6
08.12.2019 21:00:00 6,0 4,0 24 13 SW 10
08.12.2019 20:00:00 6,0 4,0 31 17 SW 10
08.12.2019 19:00:00 6,0 4,0 34 18 SW 10
08.12.2019 18:00:00 6,0 4,0 34 18 SW 10
08.12.2019 17:00:00 6,0 4,0 34 18 SW 8
08.12.2019 16:00:00 6,0 4,0 37 20 SW 10
08.12.2019 15:00:00 7,0 3,0 42 23 SW 10
08.12.2019 14:00:00 7,0 3,0 41 22 SW 10
08.12.2019 13:00:00 6,0 3,0 39 21 SW 10
08.12.2019 12:00:00 6,0 3,0 37 20 SW 10
08.12.2019 11:00:00 6,0 3,0 39 21 SW 7
08.12.2019 10:00:00 6,0 3,0 35 19 SW 10
08.12.2019 09:00:00 5,0 3,0 29 16 SW 10
08.12.2019 08:00:00 6,0 3,0 35 19 SW 10
08.12.2019 07:00:00 6,0 3,0 31 17 SW 10
08.12.2019 06:00:00 6,0 4,0 31 17 SW 10
08.12.2019 05:00:00 7,0 4,0 35 19 WSW 6
08.12.2019 04:00:00 7,0 4,0 22 12 SW 10
08.12.2019 03:00:00 8,0 4,0 29 16 WSW 10
08.12.2019 02:00:00 9,0 6,0 28 15 W 10
08.12.2019 01:00:00 10,0 7,0 28 15 WSW 10

tt = temperature
td = dewpoint
ff = wind speed
dd = wind direction
vv = visibility

Next stations